Hawthorn, Alabama
Current Conditions -  °F | °C
As of 8:56 PM on Friday 19 Dec 2014 (Local Time) from KMOB Reporting Station
Overcast Overcast  
Wind Chill: 41°   Ceiling: 500
Heat Index: 46°   Visibility: 10mi
Dew Point: 45°   Wind: 9mph
Humidity: 96%   Direction: 40°NE
Pressure: 30.12"   Gusts: NA
Location:  31.3942°N, 88.065°W
Report Text: KMOB 200256Z 04008KT 10SM OVC005 08/07 A3012 RMK AO2 RAE56 SLP200 P0004 60038 T00780072 56003 $
Loading
Personal Weather Stations






























Interactive Weather Map New forecast layout! Learn more

10-Day Weather Forecast

Advertisements
Track Severe Weather on mobile